Airfield :
LOGIN :

Register | Disclaimer

   EN    FR    IT 

 










Legend :    VFR   Marginal VFR   IFR   Intensive IFR   Very Intensive IFR
Visi :
Ceiling :
>= 8 km
>= 3000ft
5 to 8 km
1000 to 3000 ft
1500m to 5 km
500 to 1000 ft
800 to 1500m
200 to 500 ft
< 800m
< 200 ft
Symbols :   Thunderstorms  Fog  Heavy snow  Heavy precipitations  Wind > 20 kt
SIGMETs :     Misc.  Thunderstorms  Icing  Turbulence  Mountain Waves  Volcanic Ashes






- Airport Elevation : 464 ft
- IATA code : EVX


LFOE - Evreux

CURRENT METAR :
  • 090730Z AUTO 03009KT 350V050 CAVOK 20/12 Q1026 NOSIG

EXPIRED METARs :
  • 090700Z AUTO 03007KT CAVOK 19/13 Q1026 NOSIG
  • 090630Z AUTO 04008KT CAVOK 18/13 Q1026 NOSIG
  • 090600Z AUTO 03007KT CAVOK 17/13 Q1025 NOSIG
  • 090530Z AUTO 03007KT CAVOK 16/13 Q1025 NOSIG
  • 090500Z AUTO 04005KT CAVOK 15/12 Q1025 NOSIG

TAF TAF LFOE
Valid from the 09 at 03:00 until the 10 at 03:00 UTC


090200Z 0903/1003 03008KT CAVOK
BECMG 0909/0911 04010G20KT
BECMG 0918/0920 04008KT



MET'MAP, your aeronautical weather chart ! - Copyright ORBIFLY December 2007 - Disclaimer

ORBIFLY MET'MAP TEAM :

Programming & Development : Alexandra Zaïnal
Original concept : Baudouin d'Aumeries
Technical & hardware support : Manuel Goepfert
Assistance : Marc-Olivier Méhu




SOURCES & CREDITS :

   NOAA